sim
Sign-in with your pilot id or email,
or register
Callsign
Passwort

Schedule Details

Flight Number: OEO5027
Departure: Zagreb Franjo Tudman Airport (LDZA) at 14:55
Arrival: Munich Airport (EDDM) at 16:10

Weather Information
Getting current METAR information for LDZA 190200Z 00000KT CAVOK 11/10 Q1024 NOSIG
Getting current METAR information for EDDM 190150Z 04004KT CAVOK 07/05 Q1021 NOSIG

Schedule Frequency

Route Map